メインページ
METAR-TAF:

METAR-TAF

空港 :

レイキャヴィーク, アイスランド

レイキャヴィーク空港

緯度: 64-08N, 経度: 021-54W, 海抜: 54m

現時点の気象観測

当レポートは40分前の15:00(UTC)に作成
北西の風 14kt
気温 12°C
湿度 50%
気圧 1014 hPa
視程10km以上
高度4200ftの雲はほとんどない

METAR: BIRK 251500Z 32014KT 9999 FEW042 12/02 Q1014

時間: 15:40 (15:40 UTC)

予報

当レポートは1時間44分前の13:56(UTC)に作成
予報は25日の 15時(UTC)から 26日の 15時(UTC)まで有効
の風 8kt
視程10km以上
高度2000ftの雲はほとんどない
確率 40% :
25日の 15時(UTC)から 25日の 18時(UTC)まで一時的に
高度1500ftの千切れ雲あり
にわか雨
26日の 06時(UTC)から 26日の 09時(UTC)まで徐々に
西の風 10kt

TAF: BIRK 251356Z 2515/2615 35008KT 9999 FEW020 TX15/2515Z TN07/2609Z PROB40 TEMPO 2515/2518 SHRA BKN015 BECMG 2606/2609 27010KT

4,000以上の空港の気象観測と天気予報(METAR報とTAF報)

利用可能な観測所は地図上に黄色い丸と赤い丸で示す。

丸の上にカーソルを重ねると観測所名を参照できる。

次にクリックすると気象観測と天気予報を参照できる。

マップの切り替え:黒色「×」印の緑ボタンをクリックして拡大、「-」印の緑ボタンをクリックして縮小、緑色の三角印をクリックして隣りの地図に切り替え


METAR-TAF: